DXXX

Lomé-Tokoin Airport

Lomé, Togo
METAR DXXX 181400Z 21014KT 9999 FEW012 27/23 Q1012 NOSIG
Observed Flight Rules
Aug-18 @ 14:00 UTC (53 minutes ago) Visual Flight Rules
Wind Visibility Clouds
210° at 14 knots 10,000+ meters
  • Few at 1,200' AGL
Temperatures Readings
Current 27°C / 81°F
Dewpoint 23°C / 73°F
Humidity 79%
Altimeter 29.88" Hg
Pressure 1012 hPa
Elevation 25
METAR DXXX 181400Z 21014KT 9999 FEW012 27/23 Q1012 NOSIG
Observed Flight Rules
Aug-18 @ 14:00 UTC
(53 minutes ago)
VFR
Wind Visibility
210° at 14 knots 10,000+ meters
Clouds
  • Few at 1,200' AGL
Temperature Dewpoint
27°C / 81°F 23°C / 73°F
Humidity Altimeter Pressure
79% 29.88" Hg 1012 hPa